North Woods Beach, Wisconsin
Current Conditions -  °F | °C
As of 6:53 AM on Wednesday 22 Oct 2014 (Local Time) from KHYR Reporting Station
Clear Clear  
Wind Chill:   Ceiling: Unl
Heat Index:   Visibility: 10mi
Dew Point:   Wind: 8mph
Humidity: 79%   Direction: 160°SSE
Pressure: 30.27"   Gusts: NA
Location:  46.0387°N, 91.2627°W
Report Text: KHYR 221153Z AUTO 16007KT 10SM CLR 04/01 A3027 RMK AO2 SLP260 T00390006 10056 20033 53008
Loading
Personal Weather Stations






























Interactive Weather Map
Tropical Storm Tracking
New forecast layout! Learn more

10-Day Weather Forecast

Advertisements
Track Severe Weather on mobile